sensor_id;sensor_type;location;lat;lon;timestamp;temperature;humidity
33105;DHT22;19476;51.448;6.674;2023-02-26T00:01:20;9.30;42.10
33105;DHT22;19476;51.448;6.674;2023-02-26T00:03:50;9.30;42.10
33105;DHT22;19476;51.448;6.674;2023-02-26T00:06:28;9.30;42.20
33105;DHT22;19476;51.448;6.674;2023-02-26T00:19:42;9.20;42.70
33105;DHT22;19476;51.448;6.674;2023-02-26T00:22:44;9.20;42.90
33105;DHT22;19476;51.448;6.674;2023-02-26T00:28:38;9.10;43.00
33105;DHT22;19476;51.448;6.674;2023-02-26T00:34:25;9.10;43.20
33105;DHT22;19476;51.448;6.674;2023-02-26T00:43:52;9.10;43.40
33105;DHT22;19476;51.448;6.674;2023-02-26T01:03:16;9.10;43.40
33105;DHT22;19476;51.448;6.674;2023-02-26T01:05:42;9.00;43.10
33105;DHT22;19476;51.448;6.674;2023-02-26T01:11:34;9.00;44.10
33105;DHT22;19476;51.448;6.674;2023-02-26T01:24:13;9.00;43.60
33105;DHT22;19476;51.448;6.674;2023-02-26T01:26:40;9.00;43.50
33105;DHT22;19476;51.448;6.674;2023-02-26T01:29:06;9.00;43.40
33105;DHT22;19476;51.448;6.674;2023-02-26T01:31:59;9.00;43.60
33105;DHT22;19476;51.448;6.674;2023-02-26T01:34:45;8.90;43.70
33105;DHT22;19476;51.448;6.674;2023-02-26T01:37:41;8.90;43.70
33105;DHT22;19476;51.448;6.674;2023-02-26T01:42:57;8.90;43.90
33105;DHT22;19476;51.448;6.674;2023-02-26T01:46:31;8.90;43.90
33105;DHT22;19476;51.448;6.674;2023-02-26T01:48:59;8.90;44.00
33105;DHT22;19476;51.448;6.674;2023-02-26T01:51:50;8.80;43.80
33105;DHT22;19476;51.448;6.674;2023-02-26T01:58:03;8.90;44.10
33105;DHT22;19476;51.448;6.674;2023-02-26T02:00:30;8.80;43.90
33105;DHT22;19476;51.448;6.674;2023-02-26T02:03:31;8.80;43.90
33105;DHT22;19476;51.448;6.674;2023-02-26T02:09:20;8.80;44.30
33105;DHT22;19476;51.448;6.674;2023-02-26T02:15:37;8.80;44.20
33105;DHT22;19476;51.448;6.674;2023-02-26T02:22:10;8.70;44.10
33105;DHT22;19476;51.448;6.674;2023-02-26T02:34:45;8.60;44.00
33105;DHT22;19476;51.448;6.674;2023-02-26T02:40:48;8.70;44.00
33105;DHT22;19476;51.448;6.674;2023-02-26T02:43:30;8.60;44.00
33105;DHT22;19476;51.448;6.674;2023-02-26T02:46:45;8.60;43.90
33105;DHT22;19476;51.448;6.674;2023-02-26T02:49:20;8.60;43.90
33105;DHT22;19476;51.448;6.674;2023-02-26T02:55:19;8.50;43.90
33105;DHT22;19476;51.448;6.674;2023-02-26T03:01:10;8.40;44.10
33105;DHT22;19476;51.448;6.674;2023-02-26T03:10:28;8.30;44.20
33105;DHT22;19476;51.448;6.674;2023-02-26T03:12:54;8.30;44.20
33105;DHT22;19476;51.448;6.674;2023-02-26T03:28:34;8.20;44.60
33105;DHT22;19476;51.448;6.674;2023-02-26T03:34:52;8.10;44.80
33105;DHT22;19476;51.448;6.674;2023-02-26T03:37:27;8.00;44.90
33105;DHT22;19476;51.448;6.674;2023-02-26T03:40:49;8.00;44.80
33105;DHT22;19476;51.448;6.674;2023-02-26T03:46:32;8.00;45.10
33105;DHT22;19476;51.448;6.674;2023-02-26T03:49:06;8.00;45.20
33105;DHT22;19476;51.448;6.674;2023-02-26T03:51:32;8.00;45.20
33105;DHT22;19476;51.448;6.674;2023-02-26T03:54:22;8.00;45.10
33105;DHT22;19476;51.448;6.674;2023-02-26T03:56:49;8.00;45.20
33105;DHT22;19476;51.448;6.674;2023-02-26T03:59:25;8.00;45.00
33105;DHT22;19476;51.448;6.674;2023-02-26T04:05:25;8.00;45.20
33105;DHT22;19476;51.448;6.674;2023-02-26T04:07:52;8.00;45.10
33105;DHT22;19476;51.448;6.674;2023-02-26T04:10:59;8.00;45.00
33105;DHT22;19476;51.448;6.674;2023-02-26T04:13:28;8.00;45.00
33105;DHT22;19476;51.448;6.674;2023-02-26T04:16:03;8.00;44.90
33105;DHT22;19476;51.448;6.674;2023-02-26T04:18:29;8.00;45.00
33105;DHT22;19476;51.448;6.674;2023-02-26T04:20:55;8.00;44.90
33105;DHT22;19476;51.448;6.674;2023-02-26T04:23:21;8.20;44.90
33105;DHT22;19476;51.448;6.674;2023-02-26T04:29:08;8.10;44.80
33105;DHT22;19476;51.448;6.674;2023-02-26T04:31:34;8.00;44.50
33105;DHT22;19476;51.448;6.674;2023-02-26T04:37:21;8.00;44.50
33105;DHT22;19476;51.448;6.674;2023-02-26T04:42:59;7.90;44.40
33105;DHT22;19476;51.448;6.674;2023-02-26T04:46:03;7.90;44.50
33105;DHT22;19476;51.448;6.674;2023-02-26T04:48:28;7.90;44.60
33105;DHT22;19476;51.448;6.674;2023-02-26T04:51:31;7.90;44.60
33105;DHT22;19476;51.448;6.674;2023-02-26T04:57:29;7.90;44.40
33105;DHT22;19476;51.448;6.674;2023-02-26T04:59:55;7.90;44.30
33105;DHT22;19476;51.448;6.674;2023-02-26T05:08:57;7.70;44.10
33105;DHT22;19476;51.448;6.674;2023-02-26T05:14:45;7.60;44.20
33105;DHT22;19476;51.448;6.674;2023-02-26T05:17:11;7.60;44.20
33105;DHT22;19476;51.448;6.674;2023-02-26T05:22:52;7.50;44.30
33105;DHT22;19476;51.448;6.674;2023-02-26T05:25:18;7.50;44.30
33105;DHT22;19476;51.448;6.674;2023-02-26T05:27:43;7.50;44.40
33105;DHT22;19476;51.448;6.674;2023-02-26T05:30:12;7.50;44.40
33105;DHT22;19476;51.448;6.674;2023-02-26T05:32:38;7.50;44.60
33105;DHT22;19476;51.448;6.674;2023-02-26T05:35:04;7.50;44.50
33105;DHT22;19476;51.448;6.674;2023-02-26T05:37:30;7.50;44.60
33105;DHT22;19476;51.448;6.674;2023-02-26T05:39:56;7.50;44.50
33105;DHT22;19476;51.448;6.674;2023-02-26T05:42:22;7.50;44.40
33105;DHT22;19476;51.448;6.674;2023-02-26T05:44:47;7.50;44.40
33105;DHT22;19476;51.448;6.674;2023-02-26T05:47:13;7.50;44.30
33105;DHT22;19476;51.448;6.674;2023-02-26T05:49:39;7.50;44.30
33105;DHT22;19476;51.448;6.674;2023-02-26T05:52:05;7.50;44.10
33105;DHT22;19476;51.448;6.674;2023-02-26T05:54:30;7.50;44.20
33105;DHT22;19476;51.448;6.674;2023-02-26T05:56:56;7.50;44.10
33105;DHT22;19476;51.448;6.674;2023-02-26T05:59:22;7.50;44.10
33105;DHT22;19476;51.448;6.674;2023-02-26T06:01:48;7.40;44.00
33105;DHT22;19476;51.448;6.674;2023-02-26T06:04:14;7.40;44.10
33105;DHT22;19476;51.448;6.674;2023-02-26T06:06:39;7.30;44.00
33105;DHT22;19476;51.448;6.674;2023-02-26T06:09:05;7.30;44.00
33105;DHT22;19476;51.448;6.674;2023-02-26T06:11:31;7.30;44.30
33105;DHT22;19476;51.448;6.674;2023-02-26T06:13:57;7.30;44.40
33105;DHT22;19476;51.448;6.674;2023-02-26T06:16:23;7.30;44.40
33105;DHT22;19476;51.448;6.674;2023-02-26T06:18:49;7.20;44.40
33105;DHT22;19476;51.448;6.674;2023-02-26T06:21:15;7.20;44.40
33105;DHT22;19476;51.448;6.674;2023-02-26T06:23:41;7.20;44.50
33105;DHT22;19476;51.448;6.674;2023-02-26T06:26:07;7.20;44.40
33105;DHT22;19476;51.448;6.674;2023-02-26T06:28:33;7.30;44.40
33105;DHT22;19476;51.448;6.674;2023-02-26T06:30:59;7.30;44.40
33105;DHT22;19476;51.448;6.674;2023-02-26T06:33:25;7.30;44.40
33105;DHT22;19476;51.448;6.674;2023-02-26T06:35:51;7.30;44.40
33105;DHT22;19476;51.448;6.674;2023-02-26T06:38:17;7.30;44.30
33105;DHT22;19476;51.448;6.674;2023-02-26T06:40:44;7.30;44.40
33105;DHT22;19476;51.448;6.674;2023-02-26T06:43:10;7.30;44.50
33105;DHT22;19476;51.448;6.674;2023-02-26T06:45:36;7.30;44.50
33105;DHT22;19476;51.448;6.674;2023-02-26T06:48:02;7.30;44.50
33105;DHT22;19476;51.448;6.674;2023-02-26T06:50:27;7.30;44.40
33105;DHT22;19476;51.448;6.674;2023-02-26T06:52:53;7.40;44.40
33105;DHT22;19476;51.448;6.674;2023-02-26T06:55:19;7.40;44.20
33105;DHT22;19476;51.448;6.674;2023-02-26T06:57:46;7.40;44.10
33105;DHT22;19476;51.448;6.674;2023-02-26T07:00:13;7.40;44.10
33105;DHT22;19476;51.448;6.674;2023-02-26T07:02:39;7.40;44.10
33105;DHT22;19476;51.448;6.674;2023-02-26T07:05:05;7.40;44.10
33105;DHT22;19476;51.448;6.674;2023-02-26T07:07:31;7.40;44.10
33105;DHT22;19476;51.448;6.674;2023-02-26T07:09:56;7.40;44.00
33105;DHT22;19476;51.448;6.674;2023-02-26T07:12:22;7.40;44.10
33105;DHT22;19476;51.448;6.674;2023-02-26T07:14:48;7.40;44.00
33105;DHT22;19476;51.448;6.674;2023-02-26T07:17:13;7.40;44.10
33105;DHT22;19476;51.448;6.674;2023-02-26T07:19:50;7.40;44.10
33105;DHT22;19476;51.448;6.674;2023-02-26T07:22:17;7.40;44.10
33105;DHT22;19476;51.448;6.674;2023-02-26T07:24:44;7.50;44.20
33105;DHT22;19476;51.448;6.674;2023-02-26T07:27:10;7.50;44.10
33105;DHT22;19476;51.448;6.674;2023-02-26T07:29:37;7.50;44.20
33105;DHT22;19476;51.448;6.674;2023-02-26T07:32:03;7.50;44.10
33105;DHT22;19476;51.448;6.674;2023-02-26T07:34:29;7.60;44.00
33105;DHT22;19476;51.448;6.674;2023-02-26T07:36:55;7.60;44.00
33105;DHT22;19476;51.448;6.674;2023-02-26T07:39:21;7.60;43.90
33105;DHT22;19476;51.448;6.674;2023-02-26T07:41:47;7.70;43.90
33105;DHT22;19476;51.448;6.674;2023-02-26T07:44:12;7.70;43.90
33105;DHT22;19476;51.448;6.674;2023-02-26T07:46:38;7.70;43.80
33105;DHT22;19476;51.448;6.674;2023-02-26T07:49:04;7.80;43.70
33105;DHT22;19476;51.448;6.674;2023-02-26T07:51:29;7.80;43.80
33105;DHT22;19476;51.448;6.674;2023-02-26T07:53:55;7.90;43.80
33105;DHT22;19476;51.448;6.674;2023-02-26T07:56:21;7.90;43.80
33105;DHT22;19476;51.448;6.674;2023-02-26T07:58:47;7.90;43.70
33105;DHT22;19476;51.448;6.674;2023-02-26T08:01:13;8.00;43.70
33105;DHT22;19476;51.448;6.674;2023-02-26T08:03:38;8.00;43.70
33105;DHT22;19476;51.448;6.674;2023-02-26T08:06:05;8.10;43.60
33105;DHT22;19476;51.448;6.674;2023-02-26T08:08:30;8.10;43.50
33105;DHT22;19476;51.448;6.674;2023-02-26T08:11:01;8.20;43.40
33105;DHT22;19476;51.448;6.674;2023-02-26T08:13:26;8.30;43.20
33105;DHT22;19476;51.448;6.674;2023-02-26T08:15:52;8.30;43.20
33105;DHT22;19476;51.448;6.674;2023-02-26T08:18:18;8.40;43.20
33105;DHT22;19476;51.448;6.674;2023-02-26T08:20:44;8.40;43.20
33105;DHT22;19476;51.448;6.674;2023-02-26T08:23:09;8.50;43.00
33105;DHT22;19476;51.448;6.674;2023-02-26T08:25:35;8.50;42.80
33105;DHT22;19476;51.448;6.674;2023-02-26T08:28:01;8.60;42.70
33105;DHT22;19476;51.448;6.674;2023-02-26T08:30:28;8.60;42.80
33105;DHT22;19476;51.448;6.674;2023-02-26T08:32:54;8.60;42.30
33105;DHT22;19476;51.448;6.674;2023-02-26T08:35:20;8.60;42.30
33105;DHT22;19476;51.448;6.674;2023-02-26T08:37:45;8.60;42.30
33105;DHT22;19476;51.448;6.674;2023-02-26T08:40:12;8.60;42.10
33105;DHT22;19476;51.448;6.674;2023-02-26T08:42:38;8.60;42.00
33105;DHT22;19476;51.448;6.674;2023-02-26T08:45:04;8.70;42.00
33105;DHT22;19476;51.448;6.674;2023-02-26T08:47:30;8.70;41.80
33105;DHT22;19476;51.448;6.674;2023-02-26T08:49:56;8.70;41.60
33105;DHT22;19476;51.448;6.674;2023-02-26T08:52:23;8.80;41.60
33105;DHT22;19476;51.448;6.674;2023-02-26T08:54:49;8.80;41.50
33105;DHT22;19476;51.448;6.674;2023-02-26T08:57:15;8.80;41.50
33105;DHT22;19476;51.448;6.674;2023-02-26T08:59:41;8.80;41.40
33105;DHT22;19476;51.448;6.674;2023-02-26T09:02:08;8.80;41.20
33105;DHT22;19476;51.448;6.674;2023-02-26T09:04:34;8.80;41.20
33105;DHT22;19476;51.448;6.674;2023-02-26T09:07:00;8.90;41.10
33105;DHT22;19476;51.448;6.674;2023-02-26T09:09:25;8.90;41.00
33105;DHT22;19476;51.448;6.674;2023-02-26T09:11:51;9.00;40.90
33105;DHT22;19476;51.448;6.674;2023-02-26T09:14:17;9.00;40.80
33105;DHT22;19476;51.448;6.674;2023-02-26T09:16:43;9.00;40.80
33105;DHT22;19476;51.448;6.674;2023-02-26T09:19:09;9.10;40.50
33105;DHT22;19476;51.448;6.674;2023-02-26T09:21:35;9.10;40.20
33105;DHT22;19476;51.448;6.674;2023-02-26T09:24:01;9.10;40.10
33105;DHT22;19476;51.448;6.674;2023-02-26T09:26:27;9.20;40.00
33105;DHT22;19476;51.448;6.674;2023-02-26T09:28:52;9.20;39.90
33105;DHT22;19476;51.448;6.674;2023-02-26T09:31:18;9.30;39.70
33105;DHT22;19476;51.448;6.674;2023-02-26T09:33:44;9.40;39.20
33105;DHT22;19476;51.448;6.674;2023-02-26T09:36:10;9.60;39.30
33105;DHT22;19476;51.448;6.674;2023-02-26T09:38:36;9.40;39.00
33105;DHT22;19476;51.448;6.674;2023-02-26T09:41:13;9.40;38.90
33105;DHT22;19476;51.448;6.674;2023-02-26T09:51:57;9.70;38.50
33105;DHT22;19476;51.448;6.674;2023-02-26T09:54:28;9.70;38.40
33105;DHT22;19476;51.448;6.674;2023-02-26T09:56:59;9.70;38.10
33105;DHT22;19476;51.448;6.674;2023-02-26T09:59:31;9.80;37.90
33105;DHT22;19476;51.448;6.674;2023-02-26T10:02:04;9.80;37.90
33105;DHT22;19476;51.448;6.674;2023-02-26T10:07:40;9.90;37.70
33105;DHT22;19476;51.448;6.674;2023-02-26T10:10:17;9.90;37.50
33105;DHT22;19476;51.448;6.674;2023-02-26T10:12:47;10.00;37.50
33105;DHT22;19476;51.448;6.674;2023-02-26T10:15:18;10.00;37.60
33105;DHT22;19476;51.448;6.674;2023-02-26T10:17:59;10.00;37.50
33105;DHT22;19476;51.448;6.674;2023-02-26T10:20:57;10.00;36.60
33105;DHT22;19476;51.448;6.674;2023-02-26T10:23:44;10.00;36.50
33105;DHT22;19476;51.448;6.674;2023-02-26T10:29:05;10.00;36.30
33105;DHT22;19476;51.448;6.674;2023-02-26T10:35:07;10.10;37.00
33105;DHT22;19476;51.448;6.674;2023-02-26T10:48:39;10.40;35.70
33105;DHT22;19476;51.448;6.674;2023-02-26T10:51:19;10.40;36.50
33105;DHT22;19476;51.448;6.674;2023-02-26T10:53:56;10.40;35.70
33105;DHT22;19476;51.448;6.674;2023-02-26T10:56:26;10.50;35.60
33105;DHT22;19476;51.448;6.674;2023-02-26T10:58:54;10.60;35.90
33105;DHT22;19476;51.448;6.674;2023-02-26T11:01:23;10.60;35.70
33105;DHT22;19476;51.448;6.674;2023-02-26T11:06:30;10.70;35.00
33105;DHT22;19476;51.448;6.674;2023-02-26T11:08:58;10.80;35.00
33105;DHT22;19476;51.448;6.674;2023-02-26T11:11:51;10.80;35.00
33105;DHT22;19476;51.448;6.674;2023-02-26T11:14:17;10.80;34.20
33105;DHT22;19476;51.448;6.674;2023-02-26T11:16:59;10.70;34.50
33105;DHT22;19476;51.448;6.674;2023-02-26T11:19:28;10.70;33.70
33105;DHT22;19476;51.448;6.674;2023-02-26T11:21:56;10.70;34.20
33105;DHT22;19476;51.448;6.674;2023-02-26T11:24:31;10.60;34.10
33105;DHT22;19476;51.448;6.674;2023-02-26T11:27:00;10.60;33.80
33105;DHT22;19476;51.448;6.674;2023-02-26T11:29:37;10.60;34.30
33105;DHT22;19476;51.448;6.674;2023-02-26T11:32:05;10.60;34.00
33105;DHT22;19476;51.448;6.674;2023-02-26T11:34:32;10.60;34.40
33105;DHT22;19476;51.448;6.674;2023-02-26T11:37:06;10.60;34.60
33105;DHT22;19476;51.448;6.674;2023-02-26T11:39:37;10.70;34.50
33105;DHT22;19476;51.448;6.674;2023-02-26T11:42:04;10.70;33.90
33105;DHT22;19476;51.448;6.674;2023-02-26T11:44:43;10.80;34.10
33105;DHT22;19476;51.448;6.674;2023-02-26T11:47:12;10.80;33.30
33105;DHT22;19476;51.448;6.674;2023-02-26T11:50:00;10.90;34.00
33105;DHT22;19476;51.448;6.674;2023-02-26T11:52:43;11.00;33.20
33105;DHT22;19476;51.448;6.674;2023-02-26T11:55:35;11.10;33.10
33105;DHT22;19476;51.448;6.674;2023-02-26T11:58:15;11.10;32.80
33105;DHT22;19476;51.448;6.674;2023-02-26T12:00:42;11.20;33.90
33105;DHT22;19476;51.448;6.674;2023-02-26T12:03:16;11.20;33.00
33105;DHT22;19476;51.448;6.674;2023-02-26T12:05:46;11.20;32.40
33105;DHT22;19476;51.448;6.674;2023-02-26T12:08:26;11.20;32.90
33105;DHT22;19476;51.448;6.674;2023-02-26T12:11:05;11.20;32.20
33105;DHT22;19476;51.448;6.674;2023-02-26T12:16:27;11.30;33.10
33105;DHT22;19476;51.448;6.674;2023-02-26T12:19:13;11.40;32.50
33105;DHT22;19476;51.448;6.674;2023-02-26T12:29:41;11.60;31.50
33105;DHT22;19476;51.448;6.674;2023-02-26T12:32:52;11.50;30.50
33105;DHT22;19476;51.448;6.674;2023-02-26T12:38:18;11.40;30.40
33105;DHT22;19476;51.448;6.674;2023-02-26T12:43:47;11.40;30.50
33105;DHT22;19476;51.448;6.674;2023-02-26T12:52:21;11.40;30.90
33105;DHT22;19476;51.448;6.674;2023-02-26T13:17:29;13.10;29.80
33105;DHT22;19476;51.448;6.674;2023-02-26T13:20:02;13.30;29.60
33105;DHT22;19476;51.448;6.674;2023-02-26T13:22:41;13.60;30.00
33105;DHT22;19476;51.448;6.674;2023-02-26T13:25:42;13.80;29.70
33105;DHT22;19476;51.448;6.674;2023-02-26T13:28:34;14.00;28.60
33105;DHT22;19476;51.448;6.674;2023-02-26T13:31:22;14.30;28.70
33105;DHT22;19476;51.448;6.674;2023-02-26T13:33:50;14.40;28.40
33105;DHT22;19476;51.448;6.674;2023-02-26T13:36:16;14.60;28.80
33105;DHT22;19476;51.448;6.674;2023-02-26T13:47:14;15.10;28.10
33105;DHT22;19476;51.448;6.674;2023-02-26T13:53:35;15.40;27.60
33105;DHT22;19476;51.448;6.674;2023-02-26T13:56:12;15.50;27.00
33105;DHT22;19476;51.448;6.674;2023-02-26T13:58:40;15.70;27.00
33105;DHT22;19476;51.448;6.674;2023-02-26T14:01:18;15.80;27.80
33105;DHT22;19476;51.448;6.674;2023-02-26T14:06:37;16.10;27.60
33105;DHT22;19476;51.448;6.674;2023-02-26T14:17:48;16.30;26.30
33105;DHT22;19476;51.448;6.674;2023-02-26T14:20:16;16.40;26.90
33105;DHT22;19476;51.448;6.674;2023-02-26T14:22:45;16.40;26.90
33105;DHT22;19476;51.448;6.674;2023-02-26T14:25:31;16.60;26.70
33105;DHT22;19476;51.448;6.674;2023-02-26T14:33:33;16.80;25.90
33105;DHT22;19476;51.448;6.674;2023-02-26T14:36:04;16.90;26.40
33105;DHT22;19476;51.448;6.674;2023-02-26T14:38:34;17.00;26.20
33105;DHT22;19476;51.448;6.674;2023-02-26T14:41:07;17.00;26.00
33105;DHT22;19476;51.448;6.674;2023-02-26T14:43:44;17.00;25.90
33105;DHT22;19476;51.448;6.674;2023-02-26T14:46:11;17.10;25.60
33105;DHT22;19476;51.448;6.674;2023-02-26T14:48:38;17.50;26.40
33105;DHT22;19476;51.448;6.674;2023-02-26T14:51:41;17.20;26.00
33105;DHT22;19476;51.448;6.674;2023-02-26T14:57:08;17.10;25.10
33105;DHT22;19476;51.448;6.674;2023-02-26T15:02:21;16.60;25.80
33105;DHT22;19476;51.448;6.674;2023-02-26T15:13:05;15.60;26.30
33105;DHT22;19476;51.448;6.674;2023-02-26T15:15:43;15.40;26.20
33105;DHT22;19476;51.448;6.674;2023-02-26T15:21:12;15.10;26.20
33105;DHT22;19476;51.448;6.674;2023-02-26T15:23:50;14.90;26.90
33105;DHT22;19476;51.448;6.674;2023-02-26T15:26:34;14.70;26.50
33105;DHT22;19476;51.448;6.674;2023-02-26T15:29:06;14.50;26.80
33105;DHT22;19476;51.448;6.674;2023-02-26T15:34:11;14.20;26.90
33105;DHT22;19476;51.448;6.674;2023-02-26T15:36:47;14.20;27.10
33105;DHT22;19476;51.448;6.674;2023-02-26T15:39:15;14.00;27.40
33105;DHT22;19476;51.448;6.674;2023-02-26T15:41:43;13.90;27.50
33105;DHT22;19476;51.448;6.674;2023-02-26T15:44:15;13.80;27.60
33105;DHT22;19476;51.448;6.674;2023-02-26T15:46:45;13.80;27.30
33105;DHT22;19476;51.448;6.674;2023-02-26T15:49:27;13.60;27.40
33105;DHT22;19476;51.448;6.674;2023-02-26T15:51:57;13.50;27.40
33105;DHT22;19476;51.448;6.674;2023-02-26T15:54:29;13.40;27.80
33105;DHT22;19476;51.448;6.674;2023-02-26T15:56:57;13.40;27.80
33105;DHT22;19476;51.448;6.674;2023-02-26T15:59:26;13.30;27.80
33105;DHT22;19476;51.448;6.674;2023-02-26T16:01:53;13.20;27.60
33105;DHT22;19476;51.448;6.674;2023-02-26T16:04:21;13.10;27.50
33105;DHT22;19476;51.448;6.674;2023-02-26T16:06:51;13.10;27.70
33105;DHT22;19476;51.448;6.674;2023-02-26T16:11:53;12.90;27.50
33105;DHT22;19476;51.448;6.674;2023-02-26T16:14:34;12.80;28.00
33105;DHT22;19476;51.448;6.674;2023-02-26T16:17:01;12.80;27.80
33105;DHT22;19476;51.448;6.674;2023-02-26T16:22:06;12.60;28.10
33105;DHT22;19476;51.448;6.674;2023-02-26T16:24:33;12.60;28.40
33105;DHT22;19476;51.448;6.674;2023-02-26T16:27:03;12.60;28.60
33105;DHT22;19476;51.448;6.674;2023-02-26T16:29:32;12.60;28.60
33105;DHT22;19476;51.448;6.674;2023-02-26T16:32:01;12.50;28.80
33105;DHT22;19476;51.448;6.674;2023-02-26T16:34:50;12.50;28.70
33105;DHT22;19476;51.448;6.674;2023-02-26T16:37:32;12.50;28.60
33105;DHT22;19476;51.448;6.674;2023-02-26T16:40:15;12.50;28.60
33105;DHT22;19476;51.448;6.674;2023-02-26T16:48:04;12.40;28.80
33105;DHT22;19476;51.448;6.674;2023-02-26T16:50:34;12.40;28.90
33105;DHT22;19476;51.448;6.674;2023-02-26T16:53:15;12.40;28.50
33105;DHT22;19476;51.448;6.674;2023-02-26T16:55:46;12.30;28.40
33105;DHT22;19476;51.448;6.674;2023-02-26T16:58:15;12.30;28.40
33105;DHT22;19476;51.448;6.674;2023-02-26T17:00:44;12.20;28.60
33105;DHT22;19476;51.448;6.674;2023-02-26T17:03:16;12.10;28.70
33105;DHT22;19476;51.448;6.674;2023-02-26T17:05:57;12.00;29.10
33105;DHT22;19476;51.448;6.674;2023-02-26T17:08:33;12.00;28.80
33105;DHT22;19476;51.448;6.674;2023-02-26T17:11:06;11.90;28.80
33105;DHT22;19476;51.448;6.674;2023-02-26T17:13:34;11.90;28.80
33105;DHT22;19476;51.448;6.674;2023-02-26T17:16:09;11.90;29.10
33105;DHT22;19476;51.448;6.674;2023-02-26T17:18:35;11.80;28.90
33105;DHT22;19476;51.448;6.674;2023-02-26T17:21:02;11.80;29.60
33105;DHT22;19476;51.448;6.674;2023-02-26T17:23:31;11.70;29.30
33105;DHT22;19476;51.448;6.674;2023-02-26T17:25:58;11.70;29.30
33105;DHT22;19476;51.448;6.674;2023-02-26T17:28:32;11.70;29.40
33105;DHT22;19476;51.448;6.674;2023-02-26T17:31:02;11.70;29.40
33105;DHT22;19476;51.448;6.674;2023-02-26T17:33:28;11.60;29.50
33105;DHT22;19476;51.448;6.674;2023-02-26T17:35:57;11.60;29.60
33105;DHT22;19476;51.448;6.674;2023-02-26T17:38:23;11.60;29.70
33105;DHT22;19476;51.448;6.674;2023-02-26T17:40:49;11.60;30.20
33105;DHT22;19476;51.448;6.674;2023-02-26T17:43:21;11.60;29.80
33105;DHT22;19476;51.448;6.674;2023-02-26T17:45:47;11.60;29.90
33105;DHT22;19476;51.448;6.674;2023-02-26T17:48:15;11.60;30.00
33105;DHT22;19476;51.448;6.674;2023-02-26T17:50:54;11.60;30.00
33105;DHT22;19476;51.448;6.674;2023-02-26T17:53:22;11.60;29.90
33105;DHT22;19476;51.448;6.674;2023-02-26T17:55:49;11.70;30.00
33105;DHT22;19476;51.448;6.674;2023-02-26T18:00:44;11.70;29.90
33105;DHT22;19476;51.448;6.674;2023-02-26T18:03:17;11.70;30.00
33105;DHT22;19476;51.448;6.674;2023-02-26T18:05:45;11.70;30.20
33105;DHT22;19476;51.448;6.674;2023-02-26T18:08:21;11.70;30.20
33105;DHT22;19476;51.448;6.674;2023-02-26T18:10:47;11.70;30.00
33105;DHT22;19476;51.448;6.674;2023-02-26T18:13:13;11.70;30.20
33105;DHT22;19476;51.448;6.674;2023-02-26T18:15:39;11.60;30.30
33105;DHT22;19476;51.448;6.674;2023-02-26T18:18:04;11.60;30.40
33105;DHT22;19476;51.448;6.674;2023-02-26T18:20:31;11.50;30.40
33105;DHT22;19476;51.448;6.674;2023-02-26T18:22:57;11.50;30.50
33105;DHT22;19476;51.448;6.674;2023-02-26T18:25:23;11.50;30.60
33105;DHT22;19476;51.448;6.674;2023-02-26T18:27:51;11.50;30.70
33105;DHT22;19476;51.448;6.674;2023-02-26T18:30:29;11.40;30.70
33105;DHT22;19476;51.448;6.674;2023-02-26T18:32:55;11.40;30.80
33105;DHT22;19476;51.448;6.674;2023-02-26T18:35:23;11.40;30.90
33105;DHT22;19476;51.448;6.674;2023-02-26T18:37:50;11.40;31.10
33105;DHT22;19476;51.448;6.674;2023-02-26T18:40:19;11.40;31.10
33105;DHT22;19476;51.448;6.674;2023-02-26T18:42:49;11.40;31.20
33105;DHT22;19476;51.448;6.674;2023-02-26T18:45:17;11.40;31.30
33105;DHT22;19476;51.448;6.674;2023-02-26T18:47:44;11.40;31.40
33105;DHT22;19476;51.448;6.674;2023-02-26T18:50:13;11.40;31.50
33105;DHT22;19476;51.448;6.674;2023-02-26T18:52:43;11.40;31.50
33105;DHT22;19476;51.448;6.674;2023-02-26T18:55:10;11.40;31.50
33105;DHT22;19476;51.448;6.674;2023-02-26T18:57:37;11.40;31.60
33105;DHT22;19476;51.448;6.674;2023-02-26T19:00:05;11.40;31.60
33105;DHT22;19476;51.448;6.674;2023-02-26T19:02:33;11.40;31.70
33105;DHT22;19476;51.448;6.674;2023-02-26T19:04:59;11.40;31.70
33105;DHT22;19476;51.448;6.674;2023-02-26T19:07:25;11.40;31.80
33105;DHT22;19476;51.448;6.674;2023-02-26T19:09:51;11.40;31.90
33105;DHT22;19476;51.448;6.674;2023-02-26T19:12:17;11.30;31.80
33105;DHT22;19476;51.448;6.674;2023-02-26T19:14:48;11.30;32.00
33105;DHT22;19476;51.448;6.674;2023-02-26T19:17:13;11.30;32.00
33105;DHT22;19476;51.448;6.674;2023-02-26T19:19:39;11.30;32.10
33105;DHT22;19476;51.448;6.674;2023-02-26T19:22:11;11.30;32.20
33105;DHT22;19476;51.448;6.674;2023-02-26T19:24:41;11.30;32.30
33105;DHT22;19476;51.448;6.674;2023-02-26T19:27:07;11.30;32.40
33105;DHT22;19476;51.448;6.674;2023-02-26T19:29:34;11.30;32.50
33105;DHT22;19476;51.448;6.674;2023-02-26T19:32:02;11.30;32.50
33105;DHT22;19476;51.448;6.674;2023-02-26T19:34:29;11.30;32.60
33105;DHT22;19476;51.448;6.674;2023-02-26T19:36:55;11.30;32.60
33105;DHT22;19476;51.448;6.674;2023-02-26T19:39:22;11.40;32.70
33105;DHT22;19476;51.448;6.674;2023-02-26T19:41:49;11.40;32.80
33105;DHT22;19476;51.448;6.674;2023-02-26T19:44:17;11.40;32.80
33105;DHT22;19476;51.448;6.674;2023-02-26T19:46:45;11.40;32.80
33105;DHT22;19476;51.448;6.674;2023-02-26T19:49:11;11.40;32.80
33105;DHT22;19476;51.448;6.674;2023-02-26T19:51:37;11.40;32.90
33105;DHT22;19476;51.448;6.674;2023-02-26T19:54:03;11.40;32.90
33105;DHT22;19476;51.448;6.674;2023-02-26T19:56:29;11.40;32.80
33105;DHT22;19476;51.448;6.674;2023-02-26T19:58:55;11.40;32.80
33105;DHT22;19476;51.448;6.674;2023-02-26T20:01:22;11.40;32.80
33105;DHT22;19476;51.448;6.674;2023-02-26T20:03:47;11.40;32.80
33105;DHT22;19476;51.448;6.674;2023-02-26T20:06:13;11.40;33.00
33105;DHT22;19476;51.448;6.674;2023-02-26T20:08:39;11.40;33.00
33105;DHT22;19476;51.448;6.674;2023-02-26T20:11:06;11.40;33.00
33105;DHT22;19476;51.448;6.674;2023-02-26T20:13:32;11.40;33.10
33105;DHT22;19476;51.448;6.674;2023-02-26T20:16:03;11.40;33.10
33105;DHT22;19476;51.448;6.674;2023-02-26T20:22:29;11.30;33.10
33105;DHT22;19476;51.448;6.674;2023-02-26T20:24:54;11.30;33.20
33105;DHT22;19476;51.448;6.674;2023-02-26T20:27:21;11.30;33.30
33105;DHT22;19476;51.448;6.674;2023-02-26T20:30:21;11.30;33.30
33105;DHT22;19476;51.448;6.674;2023-02-26T20:32:47;11.30;33.40
33105;DHT22;19476;51.448;6.674;2023-02-26T20:35:13;11.30;33.30
33105;DHT22;19476;51.448;6.674;2023-02-26T20:58:05;11.10;34.10
33105;DHT22;19476;51.448;6.674;2023-02-26T21:04:08;11.10;34.40
33105;DHT22;19476;51.448;6.674;2023-02-26T21:06:34;11.10;34.50
33105;DHT22;19476;51.448;6.674;2023-02-26T21:09:06;11.10;34.50
33105;DHT22;19476;51.448;6.674;2023-02-26T21:11:36;11.10;34.60
33105;DHT22;19476;51.448;6.674;2023-02-26T21:14:04;11.10;34.70
33105;DHT22;19476;51.448;6.674;2023-02-26T21:16:30;11.10;34.70